Ruleville, Mississippi
Current Conditions -  °F | °C
As of 12:15 AM on Sunday 26 Oct 2014 (Local Time) from KRNV Reporting Station
Clear Clear  
Wind Chill: 64°   Ceiling: Unl
Heat Index: 64°   Visibility: 10mi
Dew Point: 63°   Wind: 3mph
Humidity: 97%   Direction: 200°SSW
Pressure: 30.04"   Gusts: NA
Location:  33.73°N, 90.55°W
Report Text: KRNV 260515Z AUTO 20003KT 10SM CLR 18/17 A3004 RMK AO2 T01790174
Loading
Personal Weather Stations






























Interactive Weather Map
Tropical Storm Tracking
New forecast layout! Learn more

10-Day Weather Forecast

Advertisements
Track Severe Weather on mobile